createdAt,value
2016-11-21T00:00:03.336Z,0
2016-11-21T00:01:03.437Z,0
2016-11-21T00:02:03.544Z,0
2016-11-21T00:03:03.808Z,0
2016-11-21T00:04:03.298Z,0
2016-11-21T00:05:03.909Z,0
2016-11-21T00:06:03.333Z,0
2016-11-21T00:07:03.583Z,0
2016-11-21T00:08:03.628Z,0
2016-11-21T00:09:03.775Z,0
2016-11-21T00:10:03.545Z,0
2016-11-21T00:11:03.320Z,0
2016-11-21T00:12:03.358Z,0
2016-11-21T00:13:03.300Z,0
2016-11-21T00:14:03.391Z,0
2016-11-21T00:15:03.706Z,0
2016-11-21T00:16:03.311Z,0
2016-11-21T00:17:03.285Z,0
2016-11-21T00:18:04.101Z,0
2016-11-21T00:19:03.407Z,0
2016-11-21T00:20:03.355Z,0
2016-11-21T00:21:04.091Z,0
2016-11-21T00:22:04.011Z,0
2016-11-21T00:23:03.895Z,0
2016-11-21T00:24:04.068Z,0
2016-11-21T00:25:03.855Z,0
2016-11-21T00:26:04.631Z,0
2016-11-21T00:27:05.166Z,0
2016-11-21T00:28:03.589Z,0
2016-11-21T00:29:03.622Z,0
2016-11-21T00:30:03.320Z,0
2016-11-21T00:31:04.721Z,0
2016-11-21T00:32:03.971Z,0
2016-11-21T00:33:03.837Z,0
2016-11-21T00:34:03.338Z,0
2016-11-21T00:35:03.703Z,0
2016-11-21T00:36:03.360Z,0
2016-11-21T00:37:03.413Z,0
2016-11-21T00:38:03.328Z,0
2016-11-21T00:39:03.342Z,0
2016-11-21T00:40:03.363Z,0
2016-11-21T00:41:03.402Z,0
2016-11-21T00:42:03.318Z,0
2016-11-21T00:43:03.348Z,0
2016-11-21T00:44:03.303Z,0
2016-11-21T00:45:03.350Z,0
2016-11-21T00:46:03.280Z,0
2016-11-21T00:47:03.307Z,0
2016-11-21T00:48:03.542Z,0
2016-11-21T00:49:03.283Z,0
2016-11-21T00:50:03.325Z,0
2016-11-21T00:51:03.334Z,0
2016-11-21T00:52:03.328Z,0
2016-11-21T00:53:03.339Z,0
2016-11-21T00:54:03.325Z,0
2016-11-21T00:55:03.273Z,0
2016-11-21T00:56:03.296Z,0
2016-11-21T00:57:03.303Z,0
2016-11-21T00:58:03.320Z,0
2016-11-21T00:59:03.256Z,0
2016-11-21T01:00:03.316Z,0
2016-11-21T01:01:03.348Z,0
2016-11-21T01:02:03.939Z,0
2016-11-21T01:03:03.959Z,0
2016-11-21T01:04:03.573Z,0
2016-11-21T01:05:03.329Z,0
2016-11-21T01:06:03.319Z,0
2016-11-21T01:07:04.045Z,0
2016-11-21T01:08:03.303Z,0
2016-11-21T01:09:03.462Z,0
2016-11-21T01:10:03.390Z,0
2016-11-21T01:11:03.363Z,0
2016-11-21T01:12:03.367Z,0
2016-11-21T01:13:03.334Z,0
2016-11-21T01:14:03.324Z,0
2016-11-21T01:15:03.324Z,0
2016-11-21T01:16:03.315Z,0
2016-11-21T01:17:03.359Z,0
2016-11-21T01:18:03.366Z,0
2016-11-21T01:19:03.333Z,0
2016-11-21T01:20:03.302Z,0
2016-11-21T01:21:03.428Z,0
2016-11-21T01:22:04.209Z,0
2016-11-21T01:23:04.065Z,0
2016-11-21T01:24:03.972Z,0
2016-11-21T01:25:04.021Z,0
2016-11-21T01:26:04.099Z,0
2016-11-21T01:27:04.187Z,0
2016-11-21T01:28:03.363Z,0
2016-11-21T01:29:03.902Z,0
2016-11-21T01:30:03.929Z,0
2016-11-21T01:31:03.709Z,0
2016-11-21T01:32:03.469Z,0
2016-11-21T01:33:03.557Z,0
2016-11-21T01:34:03.349Z,0
2016-11-21T01:35:03.427Z,0
2016-11-21T01:36:03.355Z,0
2016-11-21T01:37:03.573Z,0
2016-11-21T01:38:03.509Z,0
2016-11-21T01:39:03.373Z,0
2016-11-21T01:40:03.350Z,0
2016-11-21T01:41:03.322Z,0
2016-11-21T01:42:03.322Z,0
2016-11-21T01:43:03.395Z,0
2016-11-21T01:44:03.320Z,0
2016-11-21T01:45:03.329Z,0
2016-11-21T01:46:03.360Z,0
2016-11-21T01:47:03.364Z,0
2016-11-21T01:48:03.352Z,0
2016-11-21T01:49:03.359Z,0
2016-11-21T01:50:03.336Z,0
2016-11-21T01:51:03.349Z,0
2016-11-21T01:52:03.580Z,0
2016-11-21T01:53:03.366Z,0
2016-11-21T01:54:03.399Z,0
2016-11-21T01:55:03.379Z,0
2016-11-21T01:56:03.361Z,0
2016-11-21T01:57:03.375Z,0
2016-11-21T01:58:03.419Z,0
2016-11-21T01:59:03.380Z,0
2016-11-21T02:00:03.446Z,0
2016-11-21T02:01:03.370Z,0
2016-11-21T02:02:03.366Z,0
2016-11-21T02:03:03.366Z,0
2016-11-21T02:04:03.481Z,0
2016-11-21T02:05:03.453Z,0
2016-11-21T02:06:04.006Z,0
2016-11-21T02:07:03.427Z,0
2016-11-21T02:08:03.404Z,0
2016-11-21T02:09:03.377Z,0
2016-11-21T02:10:03.401Z,0
2016-11-21T02:11:03.616Z,0
2016-11-21T02:12:03.360Z,0
2016-11-21T02:13:03.387Z,0
2016-11-21T02:14:03.497Z,0
2016-11-21T02:15:03.574Z,0
2016-11-21T02:16:03.402Z,0
2016-11-21T02:17:03.358Z,0
2016-11-21T02:18:03.364Z,0
2016-11-21T02:19:03.361Z,0
2016-11-21T02:20:03.464Z,0
2016-11-21T02:21:03.396Z,0
2016-11-21T02:22:03.345Z,0
2016-11-21T02:23:03.485Z,0
2016-11-21T02:24:03.968Z,0
2016-11-21T02:25:04.046Z,0
2016-11-21T02:26:04.096Z,0
2016-11-21T02:27:04.024Z,0
2016-11-21T02:28:04.070Z,0
2016-11-21T02:29:03.403Z,0
2016-11-21T02:30:03.980Z,0
2016-11-21T02:31:03.352Z,0
2016-11-21T02:32:03.935Z,0
2016-11-21T02:33:03.361Z,0
2016-11-21T02:34:04.152Z,0
2016-11-21T02:35:03.433Z,0
2016-11-21T02:36:04.238Z,0
2016-11-21T02:37:03.357Z,0
2016-11-21T02:38:04.026Z,0
2016-11-21T02:39:03.421Z,0
2016-11-21T02:40:03.454Z,0
2016-11-21T02:41:03.869Z,0
2016-11-21T02:42:03.405Z,0
2016-11-21T02:43:03.414Z,0
2016-11-21T02:44:03.336Z,0
2016-11-21T02:45:03.429Z,0
2016-11-21T02:46:03.404Z,0
2016-11-21T02:47:03.379Z,0
2016-11-21T02:48:03.488Z,0
2016-11-21T02:49:03.387Z,0
2016-11-21T02:50:03.421Z,0
2016-11-21T02:51:03.351Z,0
2016-11-21T02:52:03.389Z,0
2016-11-21T02:53:03.434Z,0
2016-11-21T02:54:03.391Z,0
2016-11-21T02:55:03.381Z,0
2016-11-21T02:56:03.456Z,0
2016-11-21T02:57:03.423Z,0
2016-11-21T02:58:03.400Z,0
2016-11-21T02:59:03.357Z,0
2016-11-21T03:00:03.390Z,0
2016-11-21T03:01:03.439Z,0
2016-11-21T03:02:03.415Z,0
2016-11-21T03:03:03.498Z,0
2016-11-21T03:04:03.418Z,0
2016-11-21T03:05:03.483Z,0
2016-11-21T03:06:03.470Z,0
2016-11-21T03:07:03.391Z,0
2016-11-21T03:08:03.468Z,0
2016-11-21T03:09:03.402Z,0
2016-11-21T03:10:03.370Z,0
2016-11-21T03:11:03.625Z,0
2016-11-21T03:12:03.424Z,0
2016-11-21T03:13:03.435Z,0
2016-11-21T03:14:03.479Z,0
2016-11-21T03:15:03.467Z,0
2016-11-21T03:16:03.424Z,0
2016-11-21T03:17:03.386Z,0
2016-11-21T03:18:03.419Z,0
2016-11-21T03:19:03.415Z,0
2016-11-21T03:20:03.611Z,0
2016-11-21T03:21:03.427Z,0
2016-11-21T03:22:03.465Z,0
2016-11-21T03:23:03.443Z,0
2016-11-21T03:24:03.383Z,0
2016-11-21T03:25:03.933Z,0
2016-11-21T03:26:04.067Z,0
2016-11-21T03:27:04.248Z,0
2016-11-21T03:28:04.372Z,0
2016-11-21T03:29:03.883Z,0
2016-11-21T03:30:03.931Z,0
2016-11-21T03:31:03.424Z,0
2016-11-21T03:32:03.969Z,0
2016-11-21T03:33:03.428Z,0
2016-11-21T03:34:04.011Z,0
2016-11-21T03:35:03.397Z,0
2016-11-21T03:36:04.062Z,0
2016-11-21T03:37:03.415Z,0
2016-11-21T03:38:04.503Z,0
2016-11-21T03:39:03.438Z,0
2016-11-21T03:40:03.533Z,0
2016-11-21T03:41:03.406Z,0
2016-11-21T03:42:03.428Z,0
2016-11-21T03:43:03.396Z,0
2016-11-21T03:44:03.447Z,0
2016-11-21T03:45:03.482Z,0
2016-11-21T03:46:03.441Z,0
2016-11-21T03:47:03.408Z,0
2016-11-21T03:48:03.397Z,0
2016-11-21T03:49:03.406Z,0
2016-11-21T03:50:03.403Z,0
2016-11-21T03:51:03.434Z,0
2016-11-21T03:52:03.468Z,0
2016-11-21T03:53:03.459Z,0
2016-11-21T03:54:03.579Z,0
2016-11-21T03:55:03.415Z,0
2016-11-21T03:56:03.400Z,0
2016-11-21T03:57:03.415Z,0
2016-11-21T03:58:03.435Z,0
2016-11-21T03:59:03.616Z,0
2016-11-21T04:00:03.434Z,0
2016-11-21T04:01:03.429Z,0
2016-11-21T04:02:03.453Z,0
2016-11-21T04:03:03.559Z,0
2016-11-21T04:04:03.463Z,0
2016-11-21T04:05:03.454Z,0
2016-11-21T04:06:03.451Z,0
2016-11-21T04:07:04.103Z,0
2016-11-21T04:08:03.450Z,0
2016-11-21T04:09:03.471Z,0
2016-11-21T04:10:03.546Z,0
2016-11-21T04:11:03.457Z,0
2016-11-21T04:12:03.479Z,0
2016-11-21T04:13:03.451Z,0
2016-11-21T04:14:03.446Z,0
2016-11-21T04:15:03.430Z,0
2016-11-21T04:16:03.492Z,0
2016-11-21T04:17:03.698Z,0
2016-11-21T04:18:03.447Z,0
2016-11-21T04:19:03.451Z,0
2016-11-21T04:20:03.457Z,0
2016-11-21T04:21:04.136Z,0
2016-11-21T04:22:03.470Z,0
2016-11-21T04:23:03.477Z,0
2016-11-21T04:24:03.444Z,0
2016-11-21T04:25:03.493Z,0
2016-11-21T04:26:03.440Z,0
2016-11-21T04:27:03.424Z,0
2016-11-21T04:28:03.606Z,0
2016-11-21T04:29:03.475Z,0
2016-11-21T04:30:03.750Z,0
2016-11-21T04:31:03.469Z,0
2016-11-21T04:32:03.443Z,0
2016-11-21T04:33:03.468Z,0
2016-11-21T04:34:03.517Z,0
2016-11-21T04:35:03.470Z,0
2016-11-21T04:36:03.511Z,0
2016-11-21T04:37:03.520Z,0
2016-11-21T04:38:03.670Z,0
2016-11-21T04:39:03.580Z,0
2016-11-21T04:40:03.494Z,0
2016-11-21T04:41:03.470Z,0
2016-11-21T04:42:03.494Z,0
2016-11-21T04:43:03.434Z,0
2016-11-21T04:44:03.526Z,0
2016-11-21T04:45:03.478Z,0
2016-11-21T04:46:03.599Z,0
2016-11-21T04:47:03.810Z,0
2016-11-21T04:48:03.566Z,0
2016-11-21T04:49:03.513Z,0
2016-11-21T04:50:03.479Z,0
2016-11-21T04:51:03.462Z,0
2016-11-21T04:52:03.451Z,0
2016-11-21T04:53:03.542Z,0
2016-11-21T04:54:03.464Z,0
2016-11-21T04:55:03.530Z,0
2016-11-21T04:56:03.540Z,0
2016-11-21T04:57:03.516Z,0
2016-11-21T04:58:03.501Z,0
2016-11-21T04:59:03.523Z,0
2016-11-21T05:00:03.472Z,0
2016-11-21T05:01:03.459Z,0
2016-11-21T05:02:03.529Z,0
2016-11-21T05:03:03.508Z,0
2016-11-21T05:04:03.583Z,0
2016-11-21T05:05:03.875Z,0
2016-11-21T05:06:03.539Z,0
2016-11-21T05:07:03.596Z,0
2016-11-21T05:08:03.501Z,0
2016-11-21T05:09:03.491Z,0
2016-11-21T05:10:03.572Z,0
2016-11-21T05:11:03.504Z,0
2016-11-21T05:12:03.494Z,0
2016-11-21T05:13:03.495Z,0
2016-11-21T05:14:04.208Z,0
2016-11-21T05:15:03.700Z,0
2016-11-21T05:16:03.642Z,0
2016-11-21T05:17:03.490Z,0
2016-11-21T05:18:03.473Z,0
2016-11-21T05:19:03.510Z,0
2016-11-21T05:20:03.506Z,0
2016-11-21T05:21:03.509Z,0
2016-11-21T05:22:03.492Z,0
2016-11-21T05:23:03.484Z,0
2016-11-21T05:24:03.821Z,0
2016-11-21T05:25:03.489Z,0
2016-11-21T05:26:03.549Z,0
2016-11-21T05:27:04.397Z,0
2016-11-21T05:28:04.319Z,0
2016-11-21T05:29:03.718Z,0
2016-11-21T05:30:04.169Z,0
2016-11-21T05:31:03.488Z,0
2016-11-21T05:32:03.523Z,0
2016-11-21T05:33:03.574Z,0
2016-11-21T05:34:03.559Z,0
2016-11-21T05:35:03.738Z,0
2016-11-21T05:36:03.818Z,0
2016-11-21T05:37:03.552Z,0
2016-11-21T05:38:03.525Z,0
2016-11-21T05:39:03.528Z,0
2016-11-21T05:40:03.558Z,0
2016-11-21T05:41:03.524Z,0
2016-11-21T05:42:03.551Z,0
2016-11-21T05:43:03.514Z,0
2016-11-21T05:44:03.517Z,0
2016-11-21T05:45:03.510Z,0
2016-11-21T05:46:03.522Z,0
2016-11-21T05:47:03.504Z,0
2016-11-21T05:48:03.504Z,0
2016-11-21T05:49:03.685Z,0
2016-11-21T05:50:03.572Z,0
2016-11-21T05:51:03.632Z,0
2016-11-21T05:52:03.541Z,0
2016-11-21T05:53:03.537Z,0
2016-11-21T05:54:03.556Z,0
2016-11-21T05:55:03.575Z,0
2016-11-21T05:56:03.872Z,0
2016-11-21T05:57:03.536Z,0
2016-11-21T05:58:03.552Z,0
2016-11-21T05:59:03.567Z,0
2016-11-21T06:00:04.290Z,0
2016-11-21T06:01:03.542Z,0
2016-11-21T06:02:03.611Z,0
2016-11-21T06:03:03.568Z,0
2016-11-21T06:04:03.567Z,0
2016-11-21T06:05:03.638Z,0
2016-11-21T06:06:03.555Z,0
2016-11-21T06:07:03.615Z,0
2016-11-21T06:08:03.537Z,0
2016-11-21T06:09:03.603Z,0
2016-11-21T06:10:03.579Z,0
2016-11-21T06:11:03.647Z,0
2016-11-21T06:12:03.555Z,0
2016-11-21T06:13:03.551Z,0
2016-11-21T06:14:03.565Z,0
2016-11-21T06:15:03.563Z,0
2016-11-21T06:16:03.595Z,0
2016-11-21T06:17:03.557Z,0
2016-11-21T06:18:03.552Z,0
2016-11-21T06:19:03.627Z,0
2016-11-21T06:20:03.593Z,0
2016-11-21T06:21:03.557Z,0
2016-11-21T06:22:03.554Z,0
2016-11-21T06:23:03.560Z,0
2016-11-21T06:24:03.603Z,0
2016-11-21T06:25:03.592Z,0
2016-11-21T06:26:03.593Z,0
2016-11-21T06:27:03.535Z,0
2016-11-21T06:28:03.557Z,0
2016-11-21T06:29:03.510Z,0
2016-11-21T06:30:03.532Z,0
2016-11-21T06:31:03.522Z,0
2016-11-21T06:32:03.544Z,0
2016-11-21T06:33:03.583Z,0
2016-11-21T06:34:03.561Z,0
2016-11-21T06:35:03.558Z,0
2016-11-21T06:36:03.573Z,0
2016-11-21T06:37:03.568Z,0
2016-11-21T06:38:03.600Z,0
2016-11-21T06:39:03.573Z,0
2016-11-21T06:40:03.573Z,0
2016-11-21T06:41:03.581Z,0
2016-11-21T06:42:03.583Z,0
2016-11-21T06:43:03.567Z,0
2016-11-21T06:44:03.593Z,0
2016-11-21T06:45:03.616Z,0
2016-11-21T06:46:03.616Z,0
2016-11-21T06:47:03.660Z,0
2016-11-21T06:48:04.111Z,0
2016-11-21T06:49:03.660Z,0
2016-11-21T06:50:03.621Z,0
2016-11-21T06:51:03.584Z,0
2016-11-21T06:52:03.615Z,0
2016-11-21T06:53:03.717Z,0
2016-11-21T06:54:03.623Z,0
2016-11-21T06:55:03.673Z,0
2016-11-21T06:56:03.654Z,0
2016-11-21T06:57:03.610Z,0
2016-11-21T06:58:03.606Z,0
2016-11-21T06:59:03.618Z,5
2016-11-21T07:00:03.619Z,5
2016-11-21T07:01:03.656Z,5
2016-11-21T07:02:03.625Z,5
2016-11-21T07:03:03.632Z,5
2016-11-21T07:04:03.687Z,5
2016-11-21T07:05:03.692Z,0
2016-11-21T07:06:03.683Z,0
2016-11-21T07:07:03.649Z,0
2016-11-21T07:08:03.667Z,0
2016-11-21T07:09:03.608Z,0
2016-11-21T07:10:03.636Z,0
2016-11-21T07:11:03.601Z,0
2016-11-21T07:12:03.597Z,0
2016-11-21T07:13:03.596Z,0
2016-11-21T07:14:03.637Z,0
2016-11-21T07:15:03.604Z,0
2016-11-21T07:16:03.641Z,5
2016-11-21T07:17:03.661Z,5
2016-11-21T07:18:03.663Z,5
2016-11-21T07:19:03.677Z,5
2016-11-21T07:20:03.677Z,5
2016-11-21T07:21:03.587Z,5
2016-11-21T07:22:03.708Z,5
2016-11-21T07:23:03.644Z,10
2016-11-21T07:24:03.657Z,10
2016-11-21T07:25:03.676Z,5
2016-11-21T07:26:03.635Z,10
2016-11-21T07:27:03.623Z,5
2016-11-21T07:28:04.504Z,5
2016-11-21T07:29:03.634Z,5
2016-11-21T07:30:03.637Z,5
2016-11-21T07:31:03.671Z,5
2016-11-21T07:32:03.634Z,10
2016-11-21T07:33:03.643Z,10
2016-11-21T07:34:03.596Z,15
2016-11-21T07:35:03.711Z,15
2016-11-21T07:36:03.664Z,15
2016-11-21T07:37:03.591Z,15
2016-11-21T07:38:03.635Z,15
2016-11-21T07:39:03.634Z,15
2016-11-21T07:40:03.605Z,15
2016-11-21T07:41:03.622Z,15
2016-11-21T07:42:03.621Z,10
2016-11-21T07:43:03.688Z,10
2016-11-21T07:44:03.784Z,15
2016-11-21T07:45:03.696Z,15
2016-11-21T07:46:03.670Z,15
2016-11-21T07:47:03.651Z,15
2016-11-21T07:48:03.625Z,15
2016-11-21T07:49:03.701Z,15
2016-11-21T07:50:05.450Z,15
2016-11-21T07:51:03.613Z,20
2016-11-21T07:52:03.635Z,25
2016-11-21T07:53:03.793Z,25
2016-11-21T07:54:03.702Z,25
2016-11-21T07:55:03.621Z,25
2016-11-21T07:56:03.820Z,30
2016-11-21T07:57:03.664Z,25
2016-11-21T07:58:03.725Z,25
2016-11-21T07:59:03.652Z,25
2016-11-21T08:00:03.655Z,25
2016-11-21T08:01:03.660Z,30
2016-11-21T08:02:03.657Z,35
2016-11-21T08:03:03.683Z,40
2016-11-21T08:04:03.724Z,45
2016-11-21T08:05:03.663Z,50
2016-11-21T08:06:04.400Z,50
2016-11-21T08:07:03.933Z,45
2016-11-21T08:08:03.721Z,45
2016-11-21T08:09:03.763Z,45
2016-11-21T08:10:03.735Z,50
2016-11-21T08:11:03.741Z,55
2016-11-21T08:12:03.788Z,60
2016-11-21T08:13:03.682Z,65
2016-11-21T08:14:03.687Z,60
2016-11-21T08:15:03.667Z,50
2016-11-21T08:16:03.717Z,45
2016-11-21T08:17:03.676Z,40
2016-11-21T08:18:03.670Z,40
2016-11-21T08:19:03.705Z,40
2016-11-21T08:20:03.641Z,45
2016-11-21T08:21:03.709Z,50
2016-11-21T08:22:03.683Z,50
2016-11-21T08:23:03.686Z,50
2016-11-21T08:24:03.743Z,50
2016-11-21T08:25:03.719Z,50
2016-11-21T08:26:03.703Z,55
2016-11-21T08:27:03.694Z,55
2016-11-21T08:28:03.662Z,55
2016-11-21T08:29:03.703Z,55
2016-11-21T08:30:03.676Z,55
2016-11-21T08:31:04.283Z,55
2016-11-21T08:32:03.679Z,55
2016-11-21T08:33:03.702Z,50
2016-11-21T08:34:03.737Z,50
2016-11-21T08:35:03.728Z,50
2016-11-21T08:36:03.712Z,50
2016-11-21T08:37:03.642Z,55
2016-11-21T08:38:03.676Z,60
2016-11-21T08:39:03.692Z,65
2016-11-21T08:40:03.736Z,65
2016-11-21T08:41:03.738Z,60
2016-11-21T08:42:03.744Z,50
2016-11-21T08:43:03.720Z,50
2016-11-21T08:44:03.875Z,45
2016-11-21T08:45:03.691Z,40
2016-11-21T08:46:03.670Z,35
2016-11-21T08:47:03.684Z,30
2016-11-21T08:48:03.683Z,30
2016-11-21T08:49:03.950Z,35
2016-11-21T08:50:03.689Z,35
2016-11-21T08:51:03.731Z,35
2016-11-21T08:52:03.728Z,35
2016-11-21T08:53:03.691Z,40
2016-11-21T08:54:03.696Z,40
2016-11-21T08:55:03.732Z,35
2016-11-21T08:56:03.760Z,35
2016-11-21T08:57:03.722Z,35
2016-11-21T08:58:03.699Z,30
2016-11-21T08:59:03.808Z,30
2016-11-21T09:00:03.738Z,30
2016-11-21T09:01:03.744Z,35
2016-11-21T09:02:03.866Z,40
2016-11-21T09:03:03.745Z,45
2016-11-21T09:04:04.205Z,45
2016-11-21T09:05:03.744Z,45
2016-11-21T09:06:04.803Z,50
2016-11-21T09:07:04.921Z,55
2016-11-21T09:08:04.100Z,55
2016-11-21T09:09:04.685Z,50
2016-11-21T09:10:04.519Z,55
2016-11-21T09:11:04.406Z,55
2016-11-21T09:12:05.267Z,55
2016-11-21T09:13:03.744Z,55
2016-11-21T09:14:04.765Z,65
2016-11-21T09:15:03.700Z,65
2016-11-21T09:16:04.062Z,70
2016-11-21T09:17:03.776Z,65
2016-11-21T09:18:03.747Z,60
2016-11-21T09:19:04.274Z,60
2016-11-21T09:20:03.721Z,60
2016-11-21T09:21:03.813Z,75
2016-11-21T09:22:04.408Z,85
2016-11-21T09:23:04.379Z,95
2016-11-21T09:24:03.786Z,100
2016-11-21T09:25:04.055Z,100
2016-11-21T09:26:04.599Z,90
2016-11-21T09:27:04.693Z,90
2016-11-21T09:28:04.392Z,80
2016-11-21T09:29:03.745Z,80
2016-11-21T09:30:03.796Z,75
2016-11-21T09:31:04.066Z,80
2016-11-21T09:32:03.715Z,85
2016-11-21T09:33:04.260Z,100
2016-11-21T09:34:03.847Z,105
2016-11-21T09:35:03.784Z,110
2016-11-21T09:36:04.003Z,105
2016-11-21T09:37:03.753Z,105
2016-11-21T09:38:03.780Z,100
2016-11-21T09:39:03.729Z,85
2016-11-21T09:40:04.865Z,85
2016-11-21T09:41:03.697Z,80
2016-11-21T09:42:04.550Z,75
2016-11-21T09:43:04.518Z,65
2016-11-21T09:44:05.829Z,65
2016-11-21T09:45:04.254Z,50
2016-11-21T09:46:04.526Z,55
2016-11-21T09:47:05.036Z,55
2016-11-21T09:48:04.771Z,55
2016-11-21T09:49:03.785Z,55
2016-11-21T09:50:04.758Z,50
2016-11-21T09:51:04.771Z,50
2016-11-21T09:52:03.774Z,55
2016-11-21T09:53:05.830Z,60
2016-11-21T09:54:04.908Z,60
2016-11-21T09:55:03.802Z,60
2016-11-21T09:56:04.204Z,60
2016-11-21T09:57:03.853Z,60
2016-11-21T09:58:03.822Z,60
2016-11-21T09:59:03.817Z,60
2016-11-21T10:00:03.776Z,60
2016-11-21T10:01:03.753Z,70
2016-11-21T10:02:03.728Z,75
2016-11-21T10:03:03.732Z,65
2016-11-21T10:04:03.779Z,60
2016-11-21T10:05:03.803Z,70
2016-11-21T10:06:03.799Z,65
2016-11-21T10:07:03.789Z,65
2016-11-21T10:08:03.761Z,75
2016-11-21T10:09:03.772Z,95
2016-11-21T10:10:03.780Z,110
2016-11-21T10:11:03.767Z,115
2016-11-21T10:12:03.906Z,110
2016-11-21T10:13:03.782Z,100
2016-11-21T10:14:03.780Z,95
2016-11-21T10:15:03.884Z,95
2016-11-21T10:16:03.839Z,90
2016-11-21T10:17:03.807Z,85
2016-11-21T10:18:03.847Z,85
2016-11-21T10:19:03.802Z,80
2016-11-21T10:20:03.823Z,75
2016-11-21T10:21:03.775Z,55
2016-11-21T10:22:03.820Z,65
2016-11-21T10:23:03.789Z,55
2016-11-21T10:24:03.935Z,55
2016-11-21T10:25:04.691Z,50
2016-11-21T10:26:03.804Z,50
2016-11-21T10:27:03.832Z,60
2016-11-21T10:28:04.809Z,50
2016-11-21T10:29:03.825Z,65
2016-11-21T10:30:03.831Z,40
2016-11-21T10:31:03.824Z,50
2016-11-21T10:32:03.827Z,55
2016-11-21T10:33:03.836Z,45
2016-11-21T10:34:03.770Z,60
2016-11-21T10:35:03.804Z,50
2016-11-21T10:36:03.804Z,50
2016-11-21T10:37:03.785Z,45
2016-11-21T10:38:03.764Z,60
2016-11-21T10:39:03.869Z,70
2016-11-21T10:40:03.860Z,55
2016-11-21T10:41:03.794Z,60
2016-11-21T10:42:03.821Z,55
2016-11-21T10:43:03.794Z,60
2016-11-21T10:44:03.769Z,55
2016-11-21T10:45:03.836Z,55
2016-11-21T10:46:03.807Z,55
2016-11-21T10:47:03.782Z,60
2016-11-21T10:48:03.827Z,60
2016-11-21T10:49:03.802Z,60
2016-11-21T10:50:04.039Z,65
2016-11-21T10:51:03.858Z,80
2016-11-21T10:52:03.779Z,75
2016-11-21T10:53:03.845Z,70
2016-11-21T10:54:03.814Z,65
2016-11-21T10:55:03.910Z,65
2016-11-21T10:56:03.798Z,75
2016-11-21T10:57:03.773Z,70
2016-11-21T10:58:03.848Z,75
2016-11-21T10:59:03.788Z,80
2016-11-21T11:00:03.926Z,80
2016-11-21T11:01:03.785Z,80
2016-11-21T11:02:03.802Z,75
2016-11-21T11:03:03.835Z,85
2016-11-21T11:04:03.877Z,95
2016-11-21T11:05:03.812Z,105
2016-11-21T11:06:03.859Z,105
2016-11-21T11:07:03.823Z,125
2016-11-21T11:08:03.798Z,135
2016-11-21T11:09:03.792Z,125
2016-11-21T11:10:03.845Z,120
2016-11-21T11:11:03.805Z,115
2016-11-21T11:12:04.964Z,105
2016-11-21T11:13:03.828Z,105
2016-11-21T11:14:03.833Z,105
2016-11-21T11:15:03.807Z,105
2016-11-21T11:16:03.809Z,90
2016-11-21T11:17:03.791Z,85
2016-11-21T11:18:03.885Z,90
2016-11-21T11:19:03.821Z,85
2016-11-21T11:20:05.122Z,85
2016-11-21T11:21:04.489Z,95
2016-11-21T11:22:03.896Z,100
2016-11-21T11:23:04.505Z,105
2016-11-21T11:24:03.903Z,115
2016-11-21T11:25:05.165Z,115
2016-11-21T11:26:03.814Z,120
2016-11-21T11:27:04.021Z,125
2016-11-21T11:28:03.948Z,115
2016-11-21T11:29:03.829Z,115
2016-11-21T11:30:03.814Z,110
2016-11-21T11:31:03.809Z,105
2016-11-21T11:32:04.181Z,95
2016-11-21T11:33:03.946Z,95
2016-11-21T11:34:03.882Z,85
2016-11-21T11:35:04.739Z,85
2016-11-21T11:36:03.961Z,80
2016-11-21T11:37:03.906Z,80
2016-11-21T11:38:03.824Z,85
2016-11-21T11:39:03.849Z,90
2016-11-21T11:40:04.080Z,90
2016-11-21T11:41:03.872Z,80
2016-11-21T11:42:04.118Z,75
2016-11-21T11:43:03.930Z,75
2016-11-21T11:44:04.046Z,80
2016-11-21T11:45:04.099Z,85
2016-11-21T11:46:03.903Z,85
2016-11-21T11:47:03.862Z,85
2016-11-21T11:48:03.991Z,85
2016-11-21T11:49:03.917Z,80
2016-11-21T11:50:04.096Z,80
2016-11-21T11:51:03.882Z,75
2016-11-21T11:52:04.028Z,70
2016-11-21T11:53:03.870Z,65
2016-11-21T11:54:03.897Z,65
2016-11-21T11:55:04.036Z,60
2016-11-21T11:56:03.872Z,55
2016-11-21T11:57:03.924Z,50
2016-11-21T11:58:04.160Z,50
2016-11-21T11:59:03.884Z,50
2016-11-21T12:00:03.997Z,55
2016-11-21T12:01:03.834Z,60
2016-11-21T12:02:03.995Z,60
2016-11-21T12:03:03.881Z,60
2016-11-21T12:04:04.127Z,60
2016-11-21T12:05:03.959Z,60
2016-11-21T12:06:03.906Z,60
2016-11-21T12:07:03.887Z,60
2016-11-21T12:08:03.843Z,60
2016-11-21T12:09:04.211Z,60
2016-11-21T12:10:03.958Z,60
2016-11-21T12:11:03.957Z,55
2016-11-21T12:12:04.009Z,60
2016-11-21T12:13:03.906Z,60
2016-11-21T12:14:03.949Z,60
2016-11-21T12:15:03.868Z,60
2016-11-21T12:16:03.882Z,60
2016-11-21T12:17:03.936Z,60
2016-11-21T12:18:04.018Z,60
2016-11-21T12:19:03.893Z,60
2016-11-21T12:20:03.980Z,55
2016-11-21T12:21:03.871Z,60
2016-11-21T12:22:03.876Z,60
2016-11-21T12:23:03.868Z,65
2016-11-21T12:24:03.926Z,70
2016-11-21T12:25:03.878Z,80
2016-11-21T12:26:03.936Z,75
2016-11-21T12:27:04.758Z,80
2016-11-21T12:28:03.920Z,85
2016-11-21T12:29:04.934Z,75
2016-11-21T12:30:05.082Z,75
2016-11-21T12:31:03.863Z,75
2016-11-21T12:32:04.310Z,80
2016-11-21T12:33:05.581Z,90
2016-11-21T12:34:04.230Z,95
2016-11-21T12:35:04.326Z,100
2016-11-21T12:36:04.390Z,105
2016-11-21T12:37:04.004Z,105
2016-11-21T12:38:03.945Z,105
2016-11-21T12:39:05.242Z,105
2016-11-21T12:40:05.100Z,95
2016-11-21T12:41:04.995Z,90
2016-11-21T12:42:04.614Z,95
2016-11-21T12:43:04.351Z,95
2016-11-21T12:44:05.127Z,95
2016-11-21T12:45:04.188Z,90
2016-11-21T12:46:04.112Z,90
2016-11-21T12:47:04.660Z,85
2016-11-21T12:48:04.768Z,80
2016-11-21T12:49:04.966Z,80
2016-11-21T12:50:03.969Z,80
2016-11-21T12:51:04.268Z,85
2016-11-21T12:52:03.943Z,100
2016-11-21T12:53:04.696Z,100
2016-11-21T12:54:03.990Z,105
2016-11-21T12:55:04.498Z,105
2016-11-21T12:56:03.980Z,100
2016-11-21T12:57:04.001Z,95
2016-11-21T12:58:03.965Z,95
2016-11-21T12:59:03.995Z,100
2016-11-21T13:00:03.959Z,100
2016-11-21T13:01:04.355Z,100
2016-11-21T13:02:03.957Z,100
2016-11-21T13:03:04.030Z,100
2016-11-21T13:04:03.926Z,100
2016-11-21T13:05:04.942Z,105
2016-11-21T13:06:03.939Z,105
2016-11-21T13:07:03.976Z,110
2016-11-21T13:08:05.181Z,110
2016-11-21T13:09:04.985Z,115
2016-11-21T13:10:05.342Z,120
2016-11-21T13:11:03.968Z,120
2016-11-21T13:12:03.964Z,120
2016-11-21T13:13:04.761Z,115
2016-11-21T13:14:03.917Z,115
2016-11-21T13:15:03.917Z,110
2016-11-21T13:16:03.953Z,105
2016-11-21T13:17:03.997Z,105
2016-11-21T13:18:03.949Z,100
2016-11-21T13:19:04.774Z,95
2016-11-21T13:20:03.920Z,90
2016-11-21T13:21:06.344Z,85
2016-11-21T13:22:04.184Z,85
2016-11-21T13:23:04.798Z,90
2016-11-21T13:24:03.943Z,100
2016-11-21T13:25:03.997Z,105
2016-11-21T13:26:04.006Z,115
2016-11-21T13:27:03.963Z,125
2016-11-21T13:28:04.774Z,130
2016-11-21T13:29:03.994Z,130
2016-11-21T13:30:05.128Z,125
2016-11-21T13:31:04.288Z,110
2016-11-21T13:32:04.515Z,105
2016-11-21T13:33:04.558Z,100
2016-11-21T13:34:03.966Z,95
2016-11-21T13:35:04.782Z,95
2016-11-21T13:36:04.669Z,90
2016-11-21T13:37:04.022Z,90
2016-11-21T13:38:05.607Z,95
2016-11-21T13:39:03.977Z,100
2016-11-21T13:40:04.214Z,105
2016-11-21T13:41:03.905Z,105
2016-11-21T13:42:06.261Z,105
2016-11-21T13:43:04.078Z,100
2016-11-21T13:44:04.929Z,95
2016-11-21T13:45:04.867Z,95
2016-11-21T13:46:03.947Z,95
2016-11-21T13:47:04.002Z,90
2016-11-21T13:48:03.955Z,80
2016-11-21T13:49:04.318Z,70
2016-11-21T13:50:03.973Z,55
2016-11-21T13:51:03.967Z,45
2016-11-21T13:52:04.456Z,35
2016-11-21T13:53:03.936Z,35
2016-11-21T13:54:03.947Z,35
2016-11-21T13:55:03.984Z,35
2016-11-21T13:56:03.976Z,35
2016-11-21T13:57:03.938Z,35
2016-11-21T13:58:03.985Z,35
2016-11-21T13:59:03.997Z,35
2016-11-21T14:00:04.020Z,35
2016-11-21T14:01:03.960Z,35
2016-11-21T14:02:04.011Z,35
2016-11-21T14:03:04.022Z,40
2016-11-21T14:04:03.981Z,45
2016-11-21T14:05:03.965Z,40
2016-11-21T14:06:03.994Z,40
2016-11-21T14:07:03.995Z,45
2016-11-21T14:08:04.164Z,40
2016-11-21T14:09:04.004Z,35
2016-11-21T14:10:03.972Z,35
2016-11-21T14:11:04.035Z,40
2016-11-21T14:12:03.989Z,40
2016-11-21T14:13:03.968Z,35
2016-11-21T14:14:04.093Z,40
2016-11-21T14:15:03.986Z,35
2016-11-21T14:16:03.969Z,30
2016-11-21T14:17:04.087Z,30
2016-11-21T14:18:04.024Z,30
2016-11-21T14:19:04.042Z,35
2016-11-21T14:20:04.039Z,35
2016-11-21T14:21:04.151Z,35
2016-11-21T14:22:03.991Z,35
2016-11-21T14:23:04.024Z,40
2016-11-21T14:24:03.992Z,30
2016-11-21T14:25:04.015Z,30
2016-11-21T14:26:04.066Z,25
2016-11-21T14:27:04.703Z,25
2016-11-21T14:28:04.039Z,25